createdAt,value
2022-09-16T00:01:01.260Z,21.99
2022-09-16T00:03:28.956Z,21.76
2022-09-16T00:05:56.880Z,21.72
2022-09-16T00:08:24.446Z,21.91
2022-09-16T00:10:52.321Z,22.08
2022-09-16T00:13:20.112Z,22.01
2022-09-16T00:15:53.638Z,22.04
2022-09-16T00:18:21.892Z,22.02
2022-09-16T00:20:55.079Z,22.08
2022-09-16T00:23:22.700Z,21.96
2022-09-16T00:25:54.909Z,22.03
2022-09-16T00:28:24.132Z,21.84
2022-09-16T00:30:52.323Z,21.55
2022-09-16T00:33:20.942Z,21.56
2022-09-16T00:35:48.803Z,21.49
2022-09-16T00:38:16.949Z,21.61
2022-09-16T00:40:47.114Z,21.46
2022-09-16T00:43:17.873Z,21.56
2022-09-16T00:46:00.127Z,21.46
2022-09-16T00:48:31.191Z,21.34
2022-09-16T00:51:07.620Z,21.24
2022-09-16T00:53:57.035Z,21.38
2022-09-16T00:56:28.269Z,21.46
2022-09-16T00:59:24.900Z,21.51
2022-09-16T01:01:54.108Z,21.30
2022-09-16T01:04:35.235Z,21.37
2022-09-16T01:07:02.952Z,21.40
2022-09-16T01:09:31.406Z,21.43
2022-09-16T01:11:59.001Z,21.39
2022-09-16T01:14:47.327Z,21.37
2022-09-16T01:17:55.376Z,21.42
2022-09-16T01:20:28.927Z,21.51
2022-09-16T01:23:41.937Z,21.56
2022-09-16T01:26:36.501Z,21.52
2022-09-16T01:29:26.907Z,21.60
2022-09-16T01:32:00.472Z,21.61
2022-09-16T01:35:02.889Z,21.73
2022-09-16T01:37:50.569Z,21.55
2022-09-16T01:40:41.857Z,21.62
2022-09-16T01:43:42.983Z,21.59
2022-09-16T01:46:23.270Z,21.41
2022-09-16T01:49:03.924Z,21.38
2022-09-16T01:51:41.831Z,21.37
2022-09-16T01:55:02.206Z,21.32
2022-09-16T01:57:58.301Z,21.38
2022-09-16T02:00:26.013Z,21.32
2022-09-16T02:03:12.245Z,21.40
2022-09-16T02:05:49.532Z,21.31
2022-09-16T02:08:29.069Z,21.33
2022-09-16T02:11:02.780Z,21.27
2022-09-16T02:13:37.145Z,21.30
2022-09-16T02:16:14.221Z,21.35
2022-09-16T02:18:45.299Z,21.36
2022-09-16T02:21:18.950Z,21.40
2022-09-16T02:23:51.782Z,21.66
2022-09-16T02:26:27.769Z,21.55
2022-09-16T02:28:56.945Z,21.50
2022-09-16T02:31:33.987Z,21.29
2022-09-16T02:34:14.929Z,21.21
2022-09-16T02:36:47.831Z,21.31
2022-09-16T02:39:23.394Z,21.32
2022-09-16T02:41:51.833Z,21.14
2022-09-16T02:44:19.680Z,21.12
2022-09-16T02:47:42.694Z,21.13
2022-09-16T02:50:12.917Z,21.15
2022-09-16T02:53:00.114Z,21.11
2022-09-16T02:55:44.675Z,20.95
2022-09-16T02:58:12.319Z,20.97
2022-09-16T03:00:48.764Z,21.04
2022-09-16T03:03:16.561Z,21.06
2022-09-16T03:06:25.333Z,21.05
2022-09-16T03:08:56.545Z,20.91
2022-09-16T03:11:30.571Z,21.00
2022-09-16T03:14:26.855Z,20.83
2022-09-16T03:17:28.874Z,20.76
2022-09-16T03:20:23.229Z,20.78
2022-09-16T03:23:35.393Z,20.70
2022-09-16T03:26:21.173Z,20.71
2022-09-16T03:29:15.863Z,20.78
2022-09-16T03:31:48.596Z,20.93
2022-09-16T03:34:27.241Z,20.90
2022-09-16T03:37:01.841Z,20.93
2022-09-16T03:39:30.618Z,20.87
2022-09-16T03:42:07.723Z,20.91
2022-09-16T03:44:39.161Z,20.88
2022-09-16T03:47:10.659Z,20.76
2022-09-16T03:49:39.048Z,20.71
2022-09-16T03:52:07.906Z,20.82
2022-09-16T03:54:37.537Z,20.82
2022-09-16T03:57:05.963Z,20.34
2022-09-16T03:59:33.570Z,19.86
2022-09-16T04:02:01.112Z,20.03
2022-09-16T04:04:28.698Z,19.83
2022-09-16T04:06:56.318Z,19.86
2022-09-16T04:09:23.762Z,19.79
2022-09-16T04:11:51.318Z,19.92
2022-09-16T04:14:18.753Z,19.90
2022-09-16T04:16:46.260Z,19.99
2022-09-16T04:19:14.709Z,19.84
2022-09-16T04:21:43.084Z,19.88
2022-09-16T04:24:13.167Z,19.95
2022-09-16T04:26:42.246Z,19.91
2022-09-16T04:29:10.068Z,20.03
2022-09-16T04:31:37.680Z,20.03
2022-09-16T04:34:05.942Z,20.22
2022-09-16T04:36:33.696Z,20.12
2022-09-16T04:39:01.269Z,20.25
2022-09-16T04:41:28.906Z,20.57
2022-09-16T04:43:59.810Z,20.75
2022-09-16T04:46:32.309Z,20.88
2022-09-16T04:49:01.325Z,21.12
2022-09-16T04:51:29.734Z,21.35
2022-09-16T04:54:01.664Z,21.52
2022-09-16T04:56:32.202Z,21.59
2022-09-16T04:59:02.688Z,21.59
2022-09-16T05:01:34.293Z,21.53
2022-09-16T05:04:07.642Z,21.52
2022-09-16T05:06:39.433Z,21.59
2022-09-16T05:09:07.266Z,21.59
2022-09-16T05:11:38.991Z,21.76
2022-09-16T05:14:16.058Z,21.94
2022-09-16T05:16:44.591Z,22.07
2022-09-16T05:19:14.220Z,22.25
2022-09-16T05:21:43.154Z,22.35
2022-09-16T05:24:13.588Z,22.43
2022-09-16T05:26:43.625Z,22.54
2022-09-16T05:29:16.872Z,22.66
2022-09-16T05:31:49.100Z,22.82
2022-09-16T05:34:21.733Z,22.86
2022-09-16T05:36:50.769Z,23.00
2022-09-16T05:39:24.098Z,22.99
2022-09-16T05:41:57.565Z,23.12
2022-09-16T05:44:26.620Z,23.26
2022-09-16T05:46:54.430Z,23.40
2022-09-16T05:49:23.635Z,23.62
2022-09-16T05:51:51.548Z,23.87
2022-09-16T05:54:20.525Z,23.99
2022-09-16T05:56:48.535Z,24.05
2022-09-16T05:59:17.754Z,24.40
2022-09-16T06:01:46.623Z,24.60
2022-09-16T06:04:16.825Z,25.06
2022-09-16T06:06:47.845Z,25.29
2022-09-16T06:09:24.272Z,25.54
2022-09-16T06:11:59.432Z,25.37
2022-09-16T06:14:29.291Z,25.62
2022-09-16T06:16:57.532Z,25.48
2022-09-16T06:19:25.094Z,25.52
2022-09-16T06:21:52.694Z,25.21
2022-09-16T06:24:21.864Z,25.10
2022-09-16T06:26:50.097Z,25.40
2022-09-16T06:29:20.526Z,25.47
2022-09-16T06:31:48.031Z,25.51
2022-09-16T06:34:18.667Z,25.90
2022-09-16T06:36:47.188Z,25.90
2022-09-16T06:39:17.258Z,25.92
2022-09-16T06:41:44.840Z,26.05
2022-09-16T06:44:12.327Z,26.02
2022-09-16T06:46:39.857Z,26.14
2022-09-16T06:49:07.350Z,26.14
2022-09-16T06:51:35.692Z,26.40
2022-09-16T06:54:06.915Z,26.65
2022-09-16T06:56:37.673Z,26.85
2022-09-16T06:59:05.503Z,27.16
2022-09-16T07:01:33.894Z,27.14
2022-09-16T07:04:10.500Z,27.33
2022-09-16T07:07:08.034Z,27.73
2022-09-16T07:09:25.946Z,27.66
2022-09-16T07:11:53.482Z,27.84
2022-09-16T07:14:24.197Z,28.27
2022-09-16T07:16:52.182Z,28.48
2022-09-16T07:19:19.958Z,28.40
2022-09-16T07:21:47.537Z,28.42
2022-09-16T07:24:15.553Z,28.61
2022-09-16T07:26:44.258Z,28.62
2022-09-16T07:29:20.715Z,28.86
2022-09-16T07:31:48.322Z,28.81
2022-09-16T07:34:16.905Z,28.92
2022-09-16T07:36:50.327Z,29.01
2022-09-16T07:39:20.438Z,29.13
2022-09-16T07:41:48.684Z,29.25
2022-09-16T07:44:19.188Z,29.36
2022-09-16T07:46:48.151Z,29.61
2022-09-16T07:49:17.155Z,29.73
2022-09-16T07:51:45.192Z,29.85
2022-09-16T07:54:16.926Z,29.92
2022-09-16T07:56:45.897Z,30.02
2022-09-16T07:59:18.862Z,30.21
2022-09-16T08:01:49.266Z,30.40
2022-09-16T08:04:19.244Z,30.59
2022-09-16T08:06:47.162Z,30.89
2022-09-16T08:12:05.251Z,31.13
2022-09-16T08:14:33.457Z,31.21
2022-09-16T08:17:01.995Z,31.42
2022-09-16T08:19:29.644Z,31.57
2022-09-16T08:21:57.075Z,31.67
2022-09-16T08:24:24.804Z,31.91
2022-09-16T08:26:52.374Z,32.06
2022-09-16T08:29:19.913Z,32.18
2022-09-16T08:31:47.421Z,32.28
2022-09-16T08:34:15.994Z,32.40
2022-09-16T08:36:44.296Z,32.58
2022-09-16T08:39:12.640Z,32.29
2022-09-16T08:42:07.372Z,32.95
2022-09-16T08:44:52.449Z,32.99
2022-09-16T08:48:03.162Z,32.89
2022-09-16T08:50:37.357Z,32.73
2022-09-16T08:53:30.869Z,32.98
2022-09-16T08:55:59.313Z,33.21
2022-09-16T08:58:39.106Z,33.15
2022-09-16T09:01:31.773Z,33.33
2022-09-16T09:04:00.538Z,33.62
2022-09-16T09:07:06.613Z,33.74
2022-09-16T09:10:10.912Z,33.76
2022-09-16T09:12:47.103Z,33.86
2022-09-16T09:15:39.793Z,34.04
2022-09-16T09:18:51.580Z,34.08
2022-09-16T09:21:44.772Z,34.24
2022-09-16T09:25:15.558Z,34.39
2022-09-16T09:28:33.389Z,34.40
2022-09-16T09:31:17.286Z,34.70
2022-09-16T09:34:18.287Z,34.94
2022-09-16T09:36:52.968Z,35.10
2022-09-16T09:40:09.685Z,35.28
2022-09-16T09:42:51.045Z,35.31
2022-09-16T09:45:38.984Z,35.71
2022-09-16T09:48:22.644Z,35.81
2022-09-16T09:50:53.711Z,36.03
2022-09-16T09:53:38.278Z,36.36
2022-09-16T09:56:44.684Z,35.82
2022-09-16T09:59:37.580Z,35.65
2022-09-16T10:02:20.552Z,35.64
2022-09-16T10:04:48.616Z,35.54
2022-09-16T10:07:21.758Z,35.76
2022-09-16T10:10:15.873Z,35.88
2022-09-16T10:12:43.982Z,35.95
2022-09-16T10:15:28.473Z,35.95
2022-09-16T10:18:00.559Z,36.53
2022-09-16T10:20:31.732Z,36.59
2022-09-16T10:23:14.501Z,36.52
2022-09-16T10:25:43.551Z,36.44
2022-09-16T10:28:29.956Z,36.35
2022-09-16T10:30:59.898Z,36.72
2022-09-16T10:33:35.003Z,36.47
2022-09-16T10:36:11.530Z,36.33
2022-09-16T10:38:53.810Z,36.10
2022-09-16T10:41:32.591Z,36.48
2022-09-16T10:44:17.618Z,36.15
2022-09-16T10:47:09.340Z,36.46
2022-09-16T10:49:54.718Z,36.10
2022-09-16T10:52:29.371Z,35.96
2022-09-16T10:54:57.269Z,36.10
2022-09-16T10:57:29.901Z,35.99
2022-09-16T11:00:18.219Z,36.02
2022-09-16T11:03:39.330Z,36.53
2022-09-16T11:06:23.157Z,36.30
2022-09-16T11:09:21.376Z,36.18
2022-09-16T11:12:19.866Z,36.75
2022-09-16T11:14:59.312Z,36.38
2022-09-16T11:17:41.743Z,36.36
2022-09-16T11:20:48.799Z,36.60
2022-09-16T11:23:42.245Z,37.02
2022-09-16T11:26:36.884Z,37.51
2022-09-16T11:29:27.608Z,38.04
2022-09-16T11:32:16.746Z,38.62
2022-09-16T11:35:29.178Z,38.87
2022-09-16T11:38:28.881Z,39.21
2022-09-16T11:41:23.765Z,39.28
2022-09-16T11:44:17.999Z,39.47
2022-09-16T11:46:51.372Z,39.64
2022-09-16T11:49:46.369Z,39.49
2022-09-16T11:53:03.110Z,39.03
2022-09-16T11:55:57.305Z,38.74
2022-09-16T11:58:38.545Z,38.20
2022-09-16T12:01:40.266Z,37.93
2022-09-16T12:04:21.245Z,37.55
2022-09-16T12:07:15.174Z,37.46
2022-09-16T12:09:50.466Z,37.25
2022-09-16T12:12:25.468Z,37.39
2022-09-16T12:15:20.779Z,37.67
2022-09-16T12:18:02.639Z,37.35
2022-09-16T12:20:41.835Z,37.26
2022-09-16T12:23:30.175Z,37.83
2022-09-16T12:26:24.532Z,38.16
2022-09-16T12:29:14.514Z,38.59
2022-09-16T12:32:05.722Z,39.07
2022-09-16T12:34:55.590Z,39.40
2022-09-16T12:37:40.476Z,39.25
2022-09-16T12:40:31.028Z,38.50
2022-09-16T12:43:19.825Z,37.27
2022-09-16T12:46:14.244Z,36.31
2022-09-16T12:49:23.945Z,35.73
2022-09-16T12:52:13.018Z,35.84
2022-09-16T12:55:14.029Z,36.15
2022-09-16T12:58:12.123Z,36.20
2022-09-16T13:00:51.735Z,36.15
2022-09-16T13:03:28.795Z,36.13
2022-09-16T13:05:59.799Z,35.89
2022-09-16T13:08:33.931Z,35.89
2022-09-16T13:14:04.114Z,35.37
2022-09-16T13:16:37.989Z,35.21
2022-09-16T13:19:46.274Z,35.10
2022-09-16T13:22:32.446Z,35.33
2022-09-16T13:25:19.391Z,35.51
2022-09-16T13:27:58.100Z,35.93
2022-09-16T13:30:38.893Z,36.39
2022-09-16T13:33:12.467Z,36.49
2022-09-16T13:35:46.832Z,36.62
2022-09-16T13:38:20.110Z,36.38
2022-09-16T13:41:00.777Z,35.94
2022-09-16T13:43:38.056Z,35.83
2022-09-16T13:46:16.163Z,36.01
2022-09-16T13:49:06.633Z,36.08
2022-09-16T13:51:44.544Z,36.08
2022-09-16T13:54:31.531Z,36.24
2022-09-16T13:57:59.214Z,36.02
2022-09-16T14:00:38.324Z,36.12
2022-09-16T14:03:58.830Z,36.32
2022-09-16T14:06:47.670Z,36.04
2022-09-16T14:09:47.867Z,35.68
2022-09-16T14:12:34.856Z,35.64
2022-09-16T14:15:02.677Z,34.96
2022-09-16T14:17:53.988Z,34.41
2022-09-16T14:20:24.057Z,33.70
2022-09-16T14:23:19.939Z,33.25
2022-09-16T14:25:47.460Z,32.98
2022-09-16T14:28:27.938Z,33.02
2022-09-16T14:31:01.674Z,32.80
2022-09-16T14:33:56.504Z,33.02
2022-09-16T14:36:31.967Z,33.06
2022-09-16T14:39:08.743Z,33.03
2022-09-16T14:41:46.650Z,32.91
2022-09-16T14:44:20.071Z,32.76
2022-09-16T14:47:07.822Z,32.71
2022-09-16T14:49:39.137Z,32.59
2022-09-16T14:52:21.681Z,32.54
2022-09-16T14:54:50.799Z,32.55
2022-09-16T14:57:25.790Z,32.55
2022-09-16T14:59:58.004Z,32.47
2022-09-16T15:02:38.567Z,32.58
2022-09-16T15:05:38.230Z,32.32
2022-09-16T15:08:47.136Z,32.39
2022-09-16T15:11:45.997Z,32.17
2022-09-16T15:14:09.823Z,32.05
2022-09-16T15:16:48.790Z,31.98
2022-09-16T15:19:29.441Z,31.80
2022-09-16T15:21:58.045Z,31.61
2022-09-16T15:24:33.748Z,31.56
2022-09-16T15:27:02.364Z,31.40
2022-09-16T15:29:38.615Z,31.28
2022-09-16T15:32:27.484Z,31.28
2022-09-16T15:35:23.672Z,31.29
2022-09-16T15:37:53.692Z,31.03
2022-09-16T15:40:29.404Z,31.11
2022-09-16T15:43:27.886Z,30.83
2022-09-16T15:46:03.983Z,30.89
2022-09-16T15:48:38.368Z,30.67
2022-09-16T15:51:41.571Z,30.44
2022-09-16T15:54:25.275Z,30.32
2022-09-16T15:57:32.621Z,30.17
2022-09-16T16:00:13.772Z,30.17
2022-09-16T16:02:56.576Z,30.34
2022-09-16T16:05:29.519Z,30.15
2022-09-16T16:08:09.615Z,29.94
2022-09-16T16:10:38.899Z,29.87
2022-09-16T16:13:07.621Z,30.12
2022-09-16T16:15:41.359Z,29.88
2022-09-16T16:18:17.243Z,30.07
2022-09-16T16:20:45.397Z,29.96
2022-09-16T16:23:15.155Z,29.78
2022-09-16T16:25:43.052Z,29.69
2022-09-16T16:28:10.965Z,29.52
2022-09-16T16:30:40.538Z,29.57
2022-09-16T16:33:08.825Z,29.67
2022-09-16T16:35:56.200Z,29.53
2022-09-16T16:38:23.744Z,29.32
2022-09-16T16:40:52.525Z,29.28
2022-09-16T16:43:20.575Z,29.34
2022-09-16T16:45:58.801Z,29.08
2022-09-16T16:48:32.279Z,29.06
2022-09-16T16:51:13.103Z,29.04
2022-09-16T16:53:40.913Z,28.95
2022-09-16T16:56:15.452Z,29.18
2022-09-16T16:58:43.632Z,29.01
2022-09-16T17:01:18.184Z,29.11
2022-09-16T17:03:50.211Z,29.01
2022-09-16T17:06:19.058Z,28.90
2022-09-16T17:08:46.643Z,28.88
2022-09-16T17:11:20.867Z,28.83
2022-09-16T17:13:57.734Z,28.90
2022-09-16T17:16:28.716Z,28.82
2022-09-16T17:19:02.165Z,28.66
2022-09-16T17:21:34.940Z,28.55
2022-09-16T17:24:05.101Z,28.53
2022-09-16T17:26:35.771Z,28.62
2022-09-16T17:29:14.770Z,28.65
2022-09-16T17:31:47.271Z,28.70
2022-09-16T17:34:16.625Z,28.68
2022-09-16T17:36:46.976Z,28.99
2022-09-16T17:39:18.877Z,29.08
2022-09-16T17:41:49.397Z,29.17
2022-09-16T17:44:19.270Z,29.25
2022-09-16T17:46:48.352Z,28.80
2022-09-16T17:49:24.895Z,28.40
2022-09-16T17:51:54.171Z,28.58
2022-09-16T17:54:22.708Z,28.49
2022-09-16T17:56:51.422Z,28.80
2022-09-16T17:59:25.924Z,28.25
2022-09-16T18:01:55.086Z,28.34
2022-09-16T18:04:24.371Z,28.15
2022-09-16T18:06:54.596Z,28.08
2022-09-16T18:09:24.721Z,27.88
2022-09-16T18:11:53.916Z,27.58
2022-09-16T18:14:23.777Z,27.49
2022-09-16T18:16:51.581Z,27.52
2022-09-16T18:19:19.809Z,27.46
2022-09-16T18:21:47.385Z,27.18
2022-09-16T18:24:14.926Z,27.02
2022-09-16T18:26:42.986Z,27.03
2022-09-16T18:29:16.707Z,27.12
2022-09-16T18:31:48.160Z,27.10
2022-09-16T18:34:17.856Z,27.01
2022-09-16T18:36:45.793Z,26.92
2022-09-16T18:39:17.546Z,26.82
2022-09-16T18:41:46.814Z,26.81
2022-09-16T18:44:25.913Z,26.79
2022-09-16T18:46:58.095Z,26.72
2022-09-16T18:49:28.483Z,26.76
2022-09-16T18:51:57.277Z,26.82
2022-09-16T18:54:30.054Z,26.76
2022-09-16T18:57:02.277Z,26.97
2022-09-16T18:59:36.726Z,26.84
2022-09-16T19:02:05.791Z,26.85
2022-09-16T19:04:38.575Z,26.78
2022-09-16T19:07:09.110Z,26.74
2022-09-16T19:09:39.831Z,26.77
2022-09-16T19:12:12.179Z,26.76
2022-09-16T19:14:41.753Z,26.74
2022-09-16T19:17:13.888Z,26.72
2022-09-16T19:19:42.959Z,26.97
2022-09-16T19:22:17.025Z,26.76
2022-09-16T19:24:44.689Z,26.68
2022-09-16T19:27:12.213Z,26.47
2022-09-16T19:29:39.846Z,26.35
2022-09-16T19:32:08.591Z,26.25
2022-09-16T19:34:37.426Z,26.54
2022-09-16T19:37:05.187Z,26.25
2022-09-16T19:39:32.924Z,26.08
2022-09-16T19:42:04.698Z,26.74
2022-09-16T19:44:33.843Z,26.65
2022-09-16T19:47:07.168Z,26.08
2022-09-16T19:49:46.569Z,26.11
2022-09-16T19:52:20.600Z,25.54
2022-09-16T19:54:49.490Z,25.28
2022-09-16T19:57:19.566Z,25.11
2022-09-16T19:59:55.149Z,25.08
2022-09-16T20:02:23.290Z,25.06
2022-09-16T20:04:50.949Z,24.85
2022-09-16T20:07:20.713Z,25.03
2022-09-16T20:09:48.681Z,25.43
2022-09-16T20:12:17.640Z,25.58
2022-09-16T20:14:46.425Z,25.53
2022-09-16T20:17:13.827Z,24.99
2022-09-16T20:19:41.344Z,24.69
2022-09-16T20:22:10.542Z,24.49
2022-09-16T20:24:38.625Z,24.40
2022-09-16T20:27:06.884Z,24.37
2022-09-16T20:29:35.376Z,24.37
2022-09-16T20:32:03.355Z,24.31
2022-09-16T20:34:32.754Z,24.33
2022-09-16T20:37:00.775Z,24.47
2022-09-16T20:39:30.410Z,24.38
2022-09-16T20:42:00.693Z,24.40
2022-09-16T20:44:30.419Z,24.44
2022-09-16T20:47:05.707Z,24.52
2022-09-16T20:49:38.202Z,24.70
2022-09-16T20:52:05.873Z,24.65
2022-09-16T20:54:35.368Z,24.67
2022-09-16T20:57:02.915Z,24.79
2022-09-16T20:59:34.229Z,24.78
2022-09-16T21:02:04.150Z,24.84
2022-09-16T21:04:31.801Z,24.97
2022-09-16T21:07:00.594Z,24.91
2022-09-16T21:09:28.063Z,24.97
2022-09-16T21:11:55.511Z,24.74
2022-09-16T21:14:23.100Z,24.58
2022-09-16T21:16:51.697Z,24.34
2022-09-16T21:19:19.189Z,24.28
2022-09-16T21:21:48.549Z,24.11
2022-09-16T21:24:17.019Z,24.07
2022-09-16T21:26:46.184Z,24.04
2022-09-16T21:29:21.869Z,24.09
2022-09-16T21:31:49.714Z,24.04
2022-09-16T21:34:20.516Z,23.97
2022-09-16T21:36:49.760Z,23.96
2022-09-16T21:39:21.989Z,24.09
2022-09-16T21:41:49.991Z,23.94
2022-09-16T21:44:18.452Z,23.83
2022-09-16T21:46:47.311Z,23.76
2022-09-16T21:49:24.392Z,23.81
2022-09-16T21:51:57.631Z,23.81
2022-09-16T21:54:26.604Z,23.77
2022-09-16T21:56:54.227Z,23.75
2022-09-16T21:59:24.248Z,23.63
2022-09-16T22:01:52.576Z,23.80
2022-09-16T22:04:24.454Z,23.87
2022-09-16T22:06:55.516Z,23.99
2022-09-16T22:09:23.537Z,24.18
2022-09-16T22:11:51.582Z,24.33
2022-09-16T22:14:19.672Z,24.21
2022-09-16T22:16:48.222Z,23.99
2022-09-16T22:19:19.862Z,24.35
2022-09-16T22:21:50.444Z,24.31
2022-09-16T22:24:22.089Z,23.80
2022-09-16T22:26:51.509Z,23.80
2022-09-16T22:29:19.408Z,23.69
2022-09-16T22:31:47.292Z,23.53
2022-09-16T22:34:16.836Z,23.71
2022-09-16T22:36:44.732Z,23.63
2022-09-16T22:39:16.056Z,23.60
2022-09-16T22:41:43.807Z,23.55
2022-09-16T22:44:11.707Z,23.52
2022-09-16T22:46:47.788Z,23.42
2022-09-16T22:49:18.107Z,23.32
2022-09-16T22:51:46.138Z,23.18
2022-09-16T22:54:14.180Z,23.19
2022-09-16T22:56:43.436Z,23.07
2022-09-16T22:59:19.024Z,23.03
2022-09-16T23:01:47.257Z,23.09
2022-09-16T23:04:15.122Z,23.23
2022-09-16T23:06:43.217Z,23.28
2022-09-16T23:09:13.443Z,23.25
2022-09-16T23:11:40.979Z,23.28
2022-09-16T23:14:19.293Z,23.14
2022-09-16T23:16:47.076Z,23.18
2022-09-16T23:19:15.383Z,23.11
2022-09-16T23:21:43.551Z,23.10
2022-09-16T23:24:17.719Z,23.12
2022-09-16T23:26:47.254Z,23.24
2022-09-16T23:29:20.669Z,23.23
2022-09-16T23:31:48.347Z,23.25
2022-09-16T23:34:19.934Z,23.11
2022-09-16T23:36:48.663Z,23.21
2022-09-16T23:39:17.944Z,23.12
2022-09-16T23:41:46.331Z,23.14
2022-09-16T23:44:15.795Z,23.10
2022-09-16T23:46:44.079Z,22.98
2022-09-16T23:49:12.417Z,22.93
2022-09-16T23:51:40.229Z,23.04
2022-09-16T23:54:07.871Z,23.04
2022-09-16T23:56:35.835Z,23.07
2022-09-16T23:59:03.465Z,23.07
